sensor_id;sensor_type;location;lat;lon;timestamp;temperature;humidity
13440;DHT22;6792;57.698;11.946;2023-04-06T00:01:49;9.90;44.30
13440;DHT22;6792;57.698;11.946;2023-04-06T00:04:18;9.90;44.30
13440;DHT22;6792;57.698;11.946;2023-04-06T00:06:48;9.80;44.20
13440;DHT22;6792;57.698;11.946;2023-04-06T00:09:17;9.80;44.30
13440;DHT22;6792;57.698;11.946;2023-04-06T00:11:47;9.80;43.70
13440;DHT22;6792;57.698;11.946;2023-04-06T00:14:16;9.70;44.20
13440;DHT22;6792;57.698;11.946;2023-04-06T00:16:46;9.70;44.20
13440;DHT22;6792;57.698;11.946;2023-04-06T00:19:17;9.70;43.70
13440;DHT22;6792;57.698;11.946;2023-04-06T00:21:47;9.70;44.30
13440;DHT22;6792;57.698;11.946;2023-04-06T00:26:46;9.70;43.80
13440;DHT22;6792;57.698;11.946;2023-04-06T00:29:18;9.70;44.40
13440;DHT22;6792;57.698;11.946;2023-04-06T00:31:47;9.70;44.30
13440;DHT22;6792;57.698;11.946;2023-04-06T00:34:17;9.60;44.30
13440;DHT22;6792;57.698;11.946;2023-04-06T00:36:47;9.60;43.80
13440;DHT22;6792;57.698;11.946;2023-04-06T00:39:17;9.60;43.80
13440;DHT22;6792;57.698;11.946;2023-04-06T00:41:51;9.50;44.30
13440;DHT22;6792;57.698;11.946;2023-04-06T00:44:21;9.50;43.80
13440;DHT22;6792;57.698;11.946;2023-04-06T00:46:51;9.40;44.30
13440;DHT22;6792;57.698;11.946;2023-04-06T00:49:20;9.40;43.90
13440;DHT22;6792;57.698;11.946;2023-04-06T00:51:49;9.40;44.50
13440;DHT22;6792;57.698;11.946;2023-04-06T00:54:19;9.30;43.90
13440;DHT22;6792;57.698;11.946;2023-04-06T00:56:48;9.30;43.90
13440;DHT22;6792;57.698;11.946;2023-04-06T00:59:18;9.30;44.40
13440;DHT22;6792;57.698;11.946;2023-04-06T01:01:47;9.30;44.40
13440;DHT22;6792;57.698;11.946;2023-04-06T01:04:20;9.30;44.40
13440;DHT22;6792;57.698;11.946;2023-04-06T01:06:51;9.30;44.40
13440;DHT22;6792;57.698;11.946;2023-04-06T01:09:22;9.30;44.40
13440;DHT22;6792;57.698;11.946;2023-04-06T01:11:51;9.20;43.80
13440;DHT22;6792;57.698;11.946;2023-04-06T01:14:21;9.20;44.50
13440;DHT22;6792;57.698;11.946;2023-04-06T01:16:51;9.20;44.50
13440;DHT22;6792;57.698;11.946;2023-04-06T01:19:21;9.20;44.40
13440;DHT22;6792;57.698;11.946;2023-04-06T01:21:51;9.20;43.90
13440;DHT22;6792;57.698;11.946;2023-04-06T01:24:21;9.20;44.40
13440;DHT22;6792;57.698;11.946;2023-04-06T01:26:50;9.10;44.30
13440;DHT22;6792;57.698;11.946;2023-04-06T01:29:20;9.10;43.80
13440;DHT22;6792;57.698;11.946;2023-04-06T01:31:49;9.10;43.90
13440;DHT22;6792;57.698;11.946;2023-04-06T01:34:18;9.00;44.40
13440;DHT22;6792;57.698;11.946;2023-04-06T01:36:48;9.00;44.40
13440;DHT22;6792;57.698;11.946;2023-04-06T01:39:17;9.00;43.90
13440;DHT22;6792;57.698;11.946;2023-04-06T01:41:47;9.00;44.60
13440;DHT22;6792;57.698;11.946;2023-04-06T01:44:17;9.00;44.60
13440;DHT22;6792;57.698;11.946;2023-04-06T01:46:48;8.90;44.60
13440;DHT22;6792;57.698;11.946;2023-04-06T01:49:20;8.90;44.10
13440;DHT22;6792;57.698;11.946;2023-04-06T01:51:49;8.90;44.10
13440;DHT22;6792;57.698;11.946;2023-04-06T01:54:20;8.90;44.70
13440;DHT22;6792;57.698;11.946;2023-04-06T01:56:52;8.90;44.70
13440;DHT22;6792;57.698;11.946;2023-04-06T01:59:21;8.90;44.70
13440;DHT22;6792;57.698;11.946;2023-04-06T02:01:50;8.90;44.70
13440;DHT22;6792;57.698;11.946;2023-04-06T02:04:20;8.90;44.80
13440;DHT22;6792;57.698;11.946;2023-04-06T02:06:49;8.90;44.80
13440;DHT22;6792;57.698;11.946;2023-04-06T02:09:18;8.90;44.80
13440;DHT22;6792;57.698;11.946;2023-04-06T02:11:48;8.90;44.90
13440;DHT22;6792;57.698;11.946;2023-04-06T02:14:20;8.90;44.90
13440;DHT22;6792;57.698;11.946;2023-04-06T02:16:49;8.90;44.40
13440;DHT22;6792;57.698;11.946;2023-04-06T02:19:19;8.90;44.90
13440;DHT22;6792;57.698;11.946;2023-04-06T02:21:48;8.80;44.80
13440;DHT22;6792;57.698;11.946;2023-04-06T02:24:17;8.80;44.80
13440;DHT22;6792;57.698;11.946;2023-04-06T02:26:49;8.80;44.90
13440;DHT22;6792;57.698;11.946;2023-04-06T02:29:18;8.70;44.90
13440;DHT22;6792;57.698;11.946;2023-04-06T02:31:49;8.70;44.90
13440;DHT22;6792;57.698;11.946;2023-04-06T02:34:18;8.70;44.90
13440;DHT22;6792;57.698;11.946;2023-04-06T02:37:06;8.70;45.00
13440;DHT22;6792;57.698;11.946;2023-04-06T02:39:35;8.70;44.50
13440;DHT22;6792;57.698;11.946;2023-04-06T02:42:05;8.70;45.10
13440;DHT22;6792;57.698;11.946;2023-04-06T02:44:34;8.70;44.50
13440;DHT22;6792;57.698;11.946;2023-04-06T02:47:03;8.70;44.50
13440;DHT22;6792;57.698;11.946;2023-04-06T02:49:33;8.60;44.50
13440;DHT22;6792;57.698;11.946;2023-04-06T02:52:03;8.60;45.10
13440;DHT22;6792;57.698;11.946;2023-04-06T02:54:32;8.60;45.00
13440;DHT22;6792;57.698;11.946;2023-04-06T02:57:02;8.60;45.10
13440;DHT22;6792;57.698;11.946;2023-04-06T02:59:32;8.50;45.10
13440;DHT22;6792;57.698;11.946;2023-04-06T03:02:02;8.50;45.20
13440;DHT22;6792;57.698;11.946;2023-04-06T03:04:31;8.50;45.20
13440;DHT22;6792;57.698;11.946;2023-04-06T03:07:02;8.50;45.20
13440;DHT22;6792;57.698;11.946;2023-04-06T03:09:31;8.50;44.70
13440;DHT22;6792;57.698;11.946;2023-04-06T03:12:01;8.50;45.30
13440;DHT22;6792;57.698;11.946;2023-04-06T03:14:30;8.50;45.30
13440;DHT22;6792;57.698;11.946;2023-04-06T03:17:00;8.50;45.30
13440;DHT22;6792;57.698;11.946;2023-04-06T03:19:29;8.50;45.40
13440;DHT22;6792;57.698;11.946;2023-04-06T03:21:59;8.50;45.30
13440;DHT22;6792;57.698;11.946;2023-04-06T03:24:28;8.50;44.80
13440;DHT22;6792;57.698;11.946;2023-04-06T03:26:58;8.50;45.30
13440;DHT22;6792;57.698;11.946;2023-04-06T03:29:28;8.40;44.80
13440;DHT22;6792;57.698;11.946;2023-04-06T03:31:57;8.50;45.40
13440;DHT22;6792;57.698;11.946;2023-04-06T03:34:27;8.40;45.40
13440;DHT22;6792;57.698;11.946;2023-04-06T03:36:56;8.40;45.40
13440;DHT22;6792;57.698;11.946;2023-04-06T03:39:25;8.40;45.40
13440;DHT22;6792;57.698;11.946;2023-04-06T03:41:55;8.40;45.40
13440;DHT22;6792;57.698;11.946;2023-04-06T03:44:24;8.40;45.50
13440;DHT22;6792;57.698;11.946;2023-04-06T03:46:53;8.40;45.40
13440;DHT22;6792;57.698;11.946;2023-04-06T03:49:23;8.40;45.40
13440;DHT22;6792;57.698;11.946;2023-04-06T03:51:53;8.40;45.50
13440;DHT22;6792;57.698;11.946;2023-04-06T03:54:23;8.40;45.50
13440;DHT22;6792;57.698;11.946;2023-04-06T03:56:52;8.30;45.50
13440;DHT22;6792;57.698;11.946;2023-04-06T03:59:21;8.30;45.50
13440;DHT22;6792;57.698;11.946;2023-04-06T04:01:51;8.30;45.60
13440;DHT22;6792;57.698;11.946;2023-04-06T04:04:20;8.30;45.60
13440;DHT22;6792;57.698;11.946;2023-04-06T04:06:50;8.30;45.60
13440;DHT22;6792;57.698;11.946;2023-04-06T04:09:19;8.30;45.70
13440;DHT22;6792;57.698;11.946;2023-04-06T04:11:48;8.30;45.70
13440;DHT22;6792;57.698;11.946;2023-04-06T04:14:18;8.30;45.10
13440;DHT22;6792;57.698;11.946;2023-04-06T04:16:47;8.30;45.10
13440;DHT22;6792;57.698;11.946;2023-04-06T04:19:17;8.40;45.80
13440;DHT22;6792;57.698;11.946;2023-04-06T04:21:48;8.30;45.90
13440;DHT22;6792;57.698;11.946;2023-04-06T04:24:18;8.30;45.80
13440;DHT22;6792;57.698;11.946;2023-04-06T04:26:47;8.30;45.80
13440;DHT22;6792;57.698;11.946;2023-04-06T04:29:16;8.30;45.80
13440;DHT22;6792;57.698;11.946;2023-04-06T04:31:48;8.30;45.30
13440;DHT22;6792;57.698;11.946;2023-04-06T04:34:17;8.30;45.80
13440;DHT22;6792;57.698;11.946;2023-04-06T04:36:48;8.30;45.80
13440;DHT22;6792;57.698;11.946;2023-04-06T04:39:17;8.20;45.80
13440;DHT22;6792;57.698;11.946;2023-04-06T04:41:47;8.20;45.80
13440;DHT22;6792;57.698;11.946;2023-04-06T04:44:16;8.30;46.00
13440;DHT22;6792;57.698;11.946;2023-04-06T04:46:48;8.30;46.50
13440;DHT22;6792;57.698;11.946;2023-04-06T04:49:17;8.30;45.90
13440;DHT22;6792;57.698;11.946;2023-04-06T04:51:47;8.30;45.90
13440;DHT22;6792;57.698;11.946;2023-04-06T04:54:18;8.20;45.90
13440;DHT22;6792;57.698;11.946;2023-04-06T04:56:47;8.20;45.90
13440;DHT22;6792;57.698;11.946;2023-04-06T04:59:18;8.20;45.90
13440;DHT22;6792;57.698;11.946;2023-04-06T05:01:47;8.20;45.90
13440;DHT22;6792;57.698;11.946;2023-04-06T05:04:17;8.20;45.50
13440;DHT22;6792;57.698;11.946;2023-04-06T05:06:47;8.30;46.10
13440;DHT22;6792;57.698;11.946;2023-04-06T05:09:17;8.30;46.00
13440;DHT22;6792;57.698;11.946;2023-04-06T05:11:46;8.20;45.40
13440;DHT22;6792;57.698;11.946;2023-04-06T05:14:16;8.30;46.10
13440;DHT22;6792;57.698;11.946;2023-04-06T05:16:46;8.20;46.00
13440;DHT22;6792;57.698;11.946;2023-04-06T05:19:15;8.20;46.00
13440;DHT22;6792;57.698;11.946;2023-04-06T05:21:45;8.20;46.10
13440;DHT22;6792;57.698;11.946;2023-04-06T05:24:14;8.30;46.10
13440;DHT22;6792;57.698;11.946;2023-04-06T05:26:43;8.30;46.20
13440;DHT22;6792;57.698;11.946;2023-04-06T05:29:14;8.30;46.70
13440;DHT22;6792;57.698;11.946;2023-04-06T05:31:44;8.30;46.20
13440;DHT22;6792;57.698;11.946;2023-04-06T05:34:16;8.30;46.20
13440;DHT22;6792;57.698;11.946;2023-04-06T05:36:48;8.30;46.20
13440;DHT22;6792;57.698;11.946;2023-04-06T05:39:18;8.40;46.20
13440;DHT22;6792;57.698;11.946;2023-04-06T05:41:48;8.40;46.20
13440;DHT22;6792;57.698;11.946;2023-04-06T05:44:18;8.40;46.20
13440;DHT22;6792;57.698;11.946;2023-04-06T05:46:50;8.40;46.20
13440;DHT22;6792;57.698;11.946;2023-04-06T05:49:19;8.50;45.80
13440;DHT22;6792;57.698;11.946;2023-04-06T05:51:48;8.60;46.40
13440;DHT22;6792;57.698;11.946;2023-04-06T05:54:18;8.60;46.40
13440;DHT22;6792;57.698;11.946;2023-04-06T05:56:47;8.70;46.40
13440;DHT22;6792;57.698;11.946;2023-04-06T05:59:17;8.60;45.70
13440;DHT22;6792;57.698;11.946;2023-04-06T06:01:49;8.70;46.30
13440;DHT22;6792;57.698;11.946;2023-04-06T06:04:18;8.70;45.80
13440;DHT22;6792;57.698;11.946;2023-04-06T06:06:48;8.80;46.40
13440;DHT22;6792;57.698;11.946;2023-04-06T06:09:17;8.80;46.40
13440;DHT22;6792;57.698;11.946;2023-04-06T06:14:28;8.90;45.90
13440;DHT22;6792;57.698;11.946;2023-04-06T06:16:58;8.90;46.40
13440;DHT22;6792;57.698;11.946;2023-04-06T06:19:27;8.90;45.80
13440;DHT22;6792;57.698;11.946;2023-04-06T06:21:57;9.00;46.40
13440;DHT22;6792;57.698;11.946;2023-04-06T06:24:28;9.00;46.20
13440;DHT22;6792;57.698;11.946;2023-04-06T06:26:59;9.00;45.70
13440;DHT22;6792;57.698;11.946;2023-04-06T06:29:28;9.00;46.30
13440;DHT22;6792;57.698;11.946;2023-04-06T06:31:57;9.10;46.30
13440;DHT22;6792;57.698;11.946;2023-04-06T06:34:27;9.10;46.30
13440;DHT22;6792;57.698;11.946;2023-04-06T06:37:09;9.10;45.70
13440;DHT22;6792;57.698;11.946;2023-04-06T06:39:41;9.00;45.70
13440;DHT22;6792;57.698;11.946;2023-04-06T06:42:11;9.10;45.70
13440;DHT22;6792;57.698;11.946;2023-04-06T06:44:46;9.30;45.80
13440;DHT22;6792;57.698;11.946;2023-04-06T06:47:16;9.20;45.80
13440;DHT22;6792;57.698;11.946;2023-04-06T06:49:47;9.20;46.30
13440;DHT22;6792;57.698;11.946;2023-04-06T06:52:21;9.20;46.30
13440;DHT22;6792;57.698;11.946;2023-04-06T06:54:57;9.20;46.30
13440;DHT22;6792;57.698;11.946;2023-04-06T06:57:30;9.30;46.40
13440;DHT22;6792;57.698;11.946;2023-04-06T07:00:02;9.20;45.90
13440;DHT22;6792;57.698;11.946;2023-04-06T07:02:36;9.20;46.50
13440;DHT22;6792;57.698;11.946;2023-04-06T07:05:06;9.20;46.60
13440;DHT22;6792;57.698;11.946;2023-04-06T07:07:35;9.30;46.60
13440;DHT22;6792;57.698;11.946;2023-04-06T07:10:06;9.30;46.50
13440;DHT22;6792;57.698;11.946;2023-04-06T07:12:36;9.30;46.50
13440;DHT22;6792;57.698;11.946;2023-04-06T07:15:07;9.30;46.50
13440;DHT22;6792;57.698;11.946;2023-04-06T07:17:36;9.40;46.10
13440;DHT22;6792;57.698;11.946;2023-04-06T07:20:07;9.40;46.70
13440;DHT22;6792;57.698;11.946;2023-04-06T07:22:39;9.40;46.70
13440;DHT22;6792;57.698;11.946;2023-04-06T07:25:10;9.50;46.70
13440;DHT22;6792;57.698;11.946;2023-04-06T07:27:40;9.50;46.90
13440;DHT22;6792;57.698;11.946;2023-04-06T07:30:11;9.60;46.80
13440;DHT22;6792;57.698;11.946;2023-04-06T07:32:43;9.60;46.30
13440;DHT22;6792;57.698;11.946;2023-04-06T07:35:13;9.60;46.90
13440;DHT22;6792;57.698;11.946;2023-04-06T07:37:43;9.60;46.90
13440;DHT22;6792;57.698;11.946;2023-04-06T07:40:12;9.60;46.90
13440;DHT22;6792;57.698;11.946;2023-04-06T07:42:42;9.70;46.90
13440;DHT22;6792;57.698;11.946;2023-04-06T07:45:12;9.70;46.90
13440;DHT22;6792;57.698;11.946;2023-04-06T07:47:41;9.70;46.90
13440;DHT22;6792;57.698;11.946;2023-04-06T07:50:11;9.70;46.90
13440;DHT22;6792;57.698;11.946;2023-04-06T07:52:41;9.70;47.00
13440;DHT22;6792;57.698;11.946;2023-04-06T07:55:10;9.70;47.00
13440;DHT22;6792;57.698;11.946;2023-04-06T07:57:40;9.80;47.10
13440;DHT22;6792;57.698;11.946;2023-04-06T08:00:12;9.80;47.20
13440;DHT22;6792;57.698;11.946;2023-04-06T08:02:41;9.80;47.30
13440;DHT22;6792;57.698;11.946;2023-04-06T08:05:11;9.80;47.20
13440;DHT22;6792;57.698;11.946;2023-04-06T08:07:40;9.80;47.20
13440;DHT22;6792;57.698;11.946;2023-04-06T08:10:11;9.80;47.20
13440;DHT22;6792;57.698;11.946;2023-04-06T08:12:40;9.90;47.30
13440;DHT22;6792;57.698;11.946;2023-04-06T08:15:11;9.90;47.40
13440;DHT22;6792;57.698;11.946;2023-04-06T08:17:40;9.90;47.40
13440;DHT22;6792;57.698;11.946;2023-04-06T08:20:10;9.90;47.30
13440;DHT22;6792;57.698;11.946;2023-04-06T08:22:40;9.90;47.30
13440;DHT22;6792;57.698;11.946;2023-04-06T08:25:09;9.90;47.90
13440;DHT22;6792;57.698;11.946;2023-04-06T08:27:38;9.90;47.40
13440;DHT22;6792;57.698;11.946;2023-04-06T08:30:09;9.90;47.40
13440;DHT22;6792;57.698;11.946;2023-04-06T08:32:38;9.90;47.40
13440;DHT22;6792;57.698;11.946;2023-04-06T08:35:09;9.90;47.50
13440;DHT22;6792;57.698;11.946;2023-04-06T08:37:39;9.90;47.50
13440;DHT22;6792;57.698;11.946;2023-04-06T08:40:10;9.90;47.60
13440;DHT22;6792;57.698;11.946;2023-04-06T08:42:41;9.90;47.60
13440;DHT22;6792;57.698;11.946;2023-04-06T08:45:11;10.00;47.20
13440;DHT22;6792;57.698;11.946;2023-04-06T08:47:43;10.00;47.80
13440;DHT22;6792;57.698;11.946;2023-04-06T08:50:13;10.00;47.80
13440;DHT22;6792;57.698;11.946;2023-04-06T08:52:44;10.00;47.90
13440;DHT22;6792;57.698;11.946;2023-04-06T08:55:16;10.00;47.90
13440;DHT22;6792;57.698;11.946;2023-04-06T08:57:46;10.00;47.90
13440;DHT22;6792;57.698;11.946;2023-04-06T09:00:17;10.10;47.90
13440;DHT22;6792;57.698;11.946;2023-04-06T09:02:48;10.10;48.00
13440;DHT22;6792;57.698;11.946;2023-04-06T09:05:18;10.20;48.00
13440;DHT22;6792;57.698;11.946;2023-04-06T09:07:49;10.20;48.00
13440;DHT22;6792;57.698;11.946;2023-04-06T09:10:19;10.20;47.50
13440;DHT22;6792;57.698;11.946;2023-04-06T09:12:51;10.30;47.60
13440;DHT22;6792;57.698;11.946;2023-04-06T09:15:21;10.30;48.70
13440;DHT22;6792;57.698;11.946;2023-04-06T09:17:50;10.40;48.20
13440;DHT22;6792;57.698;11.946;2023-04-06T09:20:24;10.50;48.20
13440;DHT22;6792;57.698;11.946;2023-04-06T09:22:55;10.50;47.70
13440;DHT22;6792;57.698;11.946;2023-04-06T09:25:25;10.60;48.40
13440;DHT22;6792;57.698;11.946;2023-04-06T09:28:02;10.60;48.40
13440;DHT22;6792;57.698;11.946;2023-04-06T09:30:34;10.70;47.90
13440;DHT22;6792;57.698;11.946;2023-04-06T09:33:04;10.80;48.60
13440;DHT22;6792;57.698;11.946;2023-04-06T09:35:53;10.90;48.50
13440;DHT22;6792;57.698;11.946;2023-04-06T09:38:22;10.90;48.00
13440;DHT22;6792;57.698;11.946;2023-04-06T09:40:52;11.00;48.50
13440;DHT22;6792;57.698;11.946;2023-04-06T09:43:28;11.10;48.60
13440;DHT22;6792;57.698;11.946;2023-04-06T09:45:58;11.20;48.60
13440;DHT22;6792;57.698;11.946;2023-04-06T09:48:38;11.20;48.60
13440;DHT22;6792;57.698;11.946;2023-04-06T09:51:08;11.20;48.50
13440;DHT22;6792;57.698;11.946;2023-04-06T09:53:40;11.30;48.60
13440;DHT22;6792;57.698;11.946;2023-04-06T09:56:12;11.40;48.70
13440;DHT22;6792;57.698;11.946;2023-04-06T09:58:44;11.40;48.70
13440;DHT22;6792;57.698;11.946;2023-04-06T10:01:17;11.50;48.80
13440;DHT22;6792;57.698;11.946;2023-04-06T10:03:51;11.60;48.80
13440;DHT22;6792;57.698;11.946;2023-04-06T10:06:23;11.60;48.20
13440;DHT22;6792;57.698;11.946;2023-04-06T10:08:54;11.70;48.70
13440;DHT22;6792;57.698;11.946;2023-04-06T10:11:25;11.80;48.80
13440;DHT22;6792;57.698;11.946;2023-04-06T10:13:56;11.90;48.70
13440;DHT22;6792;57.698;11.946;2023-04-06T10:16:26;12.00;48.80
13440;DHT22;6792;57.698;11.946;2023-04-06T10:19:00;12.10;48.70
13440;DHT22;6792;57.698;11.946;2023-04-06T10:21:30;12.20;48.20
13440;DHT22;6792;57.698;11.946;2023-04-06T10:24:06;12.30;48.80
13440;DHT22;6792;57.698;11.946;2023-04-06T10:26:37;12.40;48.20
13440;DHT22;6792;57.698;11.946;2023-04-06T10:29:07;12.50;48.80
13440;DHT22;6792;57.698;11.946;2023-04-06T10:31:41;12.60;48.20
13440;DHT22;6792;57.698;11.946;2023-04-06T10:34:10;12.60;47.90
13440;DHT22;6792;57.698;11.946;2023-04-06T10:36:40;12.60;47.90
13440;DHT22;6792;57.698;11.946;2023-04-06T10:39:09;12.60;48.40
13440;DHT22;6792;57.698;11.946;2023-04-06T10:41:45;12.70;48.40
13440;DHT22;6792;57.698;11.946;2023-04-06T10:44:21;12.70;47.80
13440;DHT22;6792;57.698;11.946;2023-04-06T10:46:56;12.70;48.50
13440;DHT22;6792;57.698;11.946;2023-04-06T10:49:28;12.80;48.40
13440;DHT22;6792;57.698;11.946;2023-04-06T10:51:58;12.80;47.90
13440;DHT22;6792;57.698;11.946;2023-04-06T10:54:28;12.80;48.30
13440;DHT22;6792;57.698;11.946;2023-04-06T10:57:00;12.90;48.30
13440;DHT22;6792;57.698;11.946;2023-04-06T10:59:29;12.90;48.30
13440;DHT22;6792;57.698;11.946;2023-04-06T11:01:59;12.90;48.30
13440;DHT22;6792;57.698;11.946;2023-04-06T11:04:28;12.90;48.30
13440;DHT22;6792;57.698;11.946;2023-04-06T11:06:58;13.00;48.40
13440;DHT22;6792;57.698;11.946;2023-04-06T11:12:06;13.10;47.90
13440;DHT22;6792;57.698;11.946;2023-04-06T11:14:35;13.10;48.40
13440;DHT22;6792;57.698;11.946;2023-04-06T11:17:04;13.20;48.40
13440;DHT22;6792;57.698;11.946;2023-04-06T11:19:35;13.30;48.40
13440;DHT22;6792;57.698;11.946;2023-04-06T11:22:08;13.40;48.30
13440;DHT22;6792;57.698;11.946;2023-04-06T11:24:40;13.50;48.20
13440;DHT22;6792;57.698;11.946;2023-04-06T11:27:09;13.60;48.20
13440;DHT22;6792;57.698;11.946;2023-04-06T11:29:39;13.60;48.00
13440;DHT22;6792;57.698;11.946;2023-04-06T11:32:08;13.60;47.30
13440;DHT22;6792;57.698;11.946;2023-04-06T11:34:39;13.70;47.80
13440;DHT22;6792;57.698;11.946;2023-04-06T11:37:10;13.80;47.80
13440;DHT22;6792;57.698;11.946;2023-04-06T11:39:42;13.80;47.60
13440;DHT22;6792;57.698;11.946;2023-04-06T11:42:11;13.90;47.60
13440;DHT22;6792;57.698;11.946;2023-04-06T11:44:43;14.00;47.50
13440;DHT22;6792;57.698;11.946;2023-04-06T11:47:14;14.10;47.40
13440;DHT22;6792;57.698;11.946;2023-04-06T11:49:47;14.30;47.30
13440;DHT22;6792;57.698;11.946;2023-04-06T11:52:19;14.30;47.00
13440;DHT22;6792;57.698;11.946;2023-04-06T11:54:50;14.40;46.90
13440;DHT22;6792;57.698;11.946;2023-04-06T11:57:21;14.50;46.70
13440;DHT22;6792;57.698;11.946;2023-04-06T11:59:52;14.60;46.60
13440;DHT22;6792;57.698;11.946;2023-04-06T12:05:14;14.80;45.60
13440;DHT22;6792;57.698;11.946;2023-04-06T12:07:46;14.80;45.30
13440;DHT22;6792;57.698;11.946;2023-04-06T12:10:15;15.00;45.80
13440;DHT22;6792;57.698;11.946;2023-04-06T12:13:03;15.00;44.90
13440;DHT22;6792;57.698;11.946;2023-04-06T12:15:37;15.10;45.30
13440;DHT22;6792;57.698;11.946;2023-04-06T12:18:07;15.20;45.10
13440;DHT22;6792;57.698;11.946;2023-04-06T12:20:40;15.30;44.80
13440;DHT22;6792;57.698;11.946;2023-04-06T12:23:10;15.30;44.50
13440;DHT22;6792;57.698;11.946;2023-04-06T12:25:41;15.30;43.80
13440;DHT22;6792;57.698;11.946;2023-04-06T12:28:11;15.40;44.20
13440;DHT22;6792;57.698;11.946;2023-04-06T12:30:40;15.40;43.40
13440;DHT22;6792;57.698;11.946;2023-04-06T12:33:10;15.50;43.80
13440;DHT22;6792;57.698;11.946;2023-04-06T12:35:39;15.40;43.70
13440;DHT22;6792;57.698;11.946;2023-04-06T12:38:09;15.50;43.60
13440;DHT22;6792;57.698;11.946;2023-04-06T12:40:39;15.50;43.50
13440;DHT22;6792;57.698;11.946;2023-04-06T12:43:09;15.70;43.40
13440;DHT22;6792;57.698;11.946;2023-04-06T12:45:38;15.80;43.20
13440;DHT22;6792;57.698;11.946;2023-04-06T12:48:08;15.90;43.00
13440;DHT22;6792;57.698;11.946;2023-04-06T12:50:37;15.90;42.70
13440;DHT22;6792;57.698;11.946;2023-04-06T12:53:07;16.10;42.50
13440;DHT22;6792;57.698;11.946;2023-04-06T12:55:36;16.30;42.40
13440;DHT22;6792;57.698;11.946;2023-04-06T12:58:05;16.50;42.10
13440;DHT22;6792;57.698;11.946;2023-04-06T13:00:35;16.90;41.80
13440;DHT22;6792;57.698;11.946;2023-04-06T13:03:04;17.10;41.30
13440;DHT22;6792;57.698;11.946;2023-04-06T13:05:34;17.40;40.80
13440;DHT22;6792;57.698;11.946;2023-04-06T13:08:03;17.70;40.30
13440;DHT22;6792;57.698;11.946;2023-04-06T13:10:32;18.00;39.80
13440;DHT22;6792;57.698;11.946;2023-04-06T13:13:01;18.30;39.30
13440;DHT22;6792;57.698;11.946;2023-04-06T13:15:32;18.60;38.70
13440;DHT22;6792;57.698;11.946;2023-04-06T13:18:03;18.90;38.00
13440;DHT22;6792;57.698;11.946;2023-04-06T13:20:33;19.40;37.50
13440;DHT22;6792;57.698;11.946;2023-04-06T13:23:03;19.90;36.90
13440;DHT22;6792;57.698;11.946;2023-04-06T13:25:33;20.20;35.30
13440;DHT22;6792;57.698;11.946;2023-04-06T13:28:02;20.70;35.30
13440;DHT22;6792;57.698;11.946;2023-04-06T13:30:31;21.40;35.10
13440;DHT22;6792;57.698;11.946;2023-04-06T13:33:01;22.00;34.00
13440;DHT22;6792;57.698;11.946;2023-04-06T13:35:30;22.50;32.50
13440;DHT22;6792;57.698;11.946;2023-04-06T13:38:00;22.90;32.40
13440;DHT22;6792;57.698;11.946;2023-04-06T13:40:29;23.20;31.90
13440;DHT22;6792;57.698;11.946;2023-04-06T13:42:59;23.50;31.50
13440;DHT22;6792;57.698;11.946;2023-04-06T13:45:28;23.90;31.00
13440;DHT22;6792;57.698;11.946;2023-04-06T13:47:58;24.20;30.30
13440;DHT22;6792;57.698;11.946;2023-04-06T13:50:27;24.60;30.00
13440;DHT22;6792;57.698;11.946;2023-04-06T13:52:57;24.80;29.60
13440;DHT22;6792;57.698;11.946;2023-04-06T13:55:26;24.90;29.30
13440;DHT22;6792;57.698;11.946;2023-04-06T13:57:55;24.90;28.90
13440;DHT22;6792;57.698;11.946;2023-04-06T14:00:25;24.50;28.60
13440;DHT22;6792;57.698;11.946;2023-04-06T14:02:55;24.00;28.60
13440;DHT22;6792;57.698;11.946;2023-04-06T14:05:24;23.60;28.70
13440;DHT22;6792;57.698;11.946;2023-04-06T14:07:55;23.10;28.40
13440;DHT22;6792;57.698;11.946;2023-04-06T14:10:24;22.70;29.00
13440;DHT22;6792;57.698;11.946;2023-04-06T14:12:55;22.30;29.10
13440;DHT22;6792;57.698;11.946;2023-04-06T14:15:26;22.00;29.20
13440;DHT22;6792;57.698;11.946;2023-04-06T14:17:56;21.60;29.50
13440;DHT22;6792;57.698;11.946;2023-04-06T14:20:26;21.20;29.40
13440;DHT22;6792;57.698;11.946;2023-04-06T14:22:55;20.90;29.50
13440;DHT22;6792;57.698;11.946;2023-04-06T14:25:24;20.70;29.60
13440;DHT22;6792;57.698;11.946;2023-04-06T14:27:53;20.40;29.80
13440;DHT22;6792;57.698;11.946;2023-04-06T14:30:23;20.10;29.90
13440;DHT22;6792;57.698;11.946;2023-04-06T14:32:52;19.90;29.90
13440;DHT22;6792;57.698;11.946;2023-04-06T14:35:21;19.70;30.00
13440;DHT22;6792;57.698;11.946;2023-04-06T14:37:50;19.40;30.50
13440;DHT22;6792;57.698;11.946;2023-04-06T14:40:20;19.20;30.30
13440;DHT22;6792;57.698;11.946;2023-04-06T14:42:51;19.10;30.00
13440;DHT22;6792;57.698;11.946;2023-04-06T14:45:20;19.00;30.20
13440;DHT22;6792;57.698;11.946;2023-04-06T14:47:50;18.90;31.00
13440;DHT22;6792;57.698;11.946;2023-04-06T14:50:19;18.80;31.10
13440;DHT22;6792;57.698;11.946;2023-04-06T14:52:49;18.70;31.30
13440;DHT22;6792;57.698;11.946;2023-04-06T14:55:18;18.60;30.70
13440;DHT22;6792;57.698;11.946;2023-04-06T14:57:47;18.40;31.50
13440;DHT22;6792;57.698;11.946;2023-04-06T15:00:21;18.40;31.60
13440;DHT22;6792;57.698;11.946;2023-04-06T15:02:50;18.30;31.80
13440;DHT22;6792;57.698;11.946;2023-04-06T15:05:19;18.30;31.90
13440;DHT22;6792;57.698;11.946;2023-04-06T15:07:48;18.30;32.10
13440;DHT22;6792;57.698;11.946;2023-04-06T15:10:19;18.20;31.50
13440;DHT22;6792;57.698;11.946;2023-04-06T15:12:49;18.20;32.20
13440;DHT22;6792;57.698;11.946;2023-04-06T15:15:19;18.00;32.20
13440;DHT22;6792;57.698;11.946;2023-04-06T15:17:48;18.10;31.80
13440;DHT22;6792;57.698;11.946;2023-04-06T15:20:21;18.10;32.50
13440;DHT22;6792;57.698;11.946;2023-04-06T15:22:50;18.00;32.40
13440;DHT22;6792;57.698;11.946;2023-04-06T15:25:19;18.00;32.30
13440;DHT22;6792;57.698;11.946;2023-04-06T15:27:49;18.00;32.30
13440;DHT22;6792;57.698;11.946;2023-04-06T15:30:18;17.90;31.70
13440;DHT22;6792;57.698;11.946;2023-04-06T15:32:52;17.90;32.40
13440;DHT22;6792;57.698;11.946;2023-04-06T15:35:23;17.90;32.40
13440;DHT22;6792;57.698;11.946;2023-04-06T15:40:34;17.80;31.60
13440;DHT22;6792;57.698;11.946;2023-04-06T15:43:07;17.60;31.60
13440;DHT22;6792;57.698;11.946;2023-04-06T15:45:37;17.60;32.20
13440;DHT22;6792;57.698;11.946;2023-04-06T15:48:07;17.50;32.20
13440;DHT22;6792;57.698;11.946;2023-04-06T15:50:36;17.40;32.20
13440;DHT22;6792;57.698;11.946;2023-04-06T15:53:07;17.30;32.20
13440;DHT22;6792;57.698;11.946;2023-04-06T15:55:37;17.20;32.20
13440;DHT22;6792;57.698;11.946;2023-04-06T15:58:06;17.20;32.20
13440;DHT22;6792;57.698;11.946;2023-04-06T16:00:38;17.10;32.30
13440;DHT22;6792;57.698;11.946;2023-04-06T16:03:07;17.10;32.30
13440;DHT22;6792;57.698;11.946;2023-04-06T16:05:36;17.00;32.30
13440;DHT22;6792;57.698;11.946;2023-04-06T16:08:09;16.90;32.20
13440;DHT22;6792;57.698;11.946;2023-04-06T16:10:38;16.90;32.30
13440;DHT22;6792;57.698;11.946;2023-04-06T16:13:08;16.80;32.30